This is the latest recevied weather packets stored in our database for station/object KC0CAU. If no packets are shown the sender has not sent any weather packets the latest 10 day(s).
| Time | Temp. | Humidity | Pressure | Rain* | Wind** | Luminosity | Snow |
|---|---|---|---|---|---|---|---|
| 1777827630 | 18.33° C | 36% | 1011.8 hPa | 0 mm | - | - | - |
| 1777826733 | 18.33° C | 35% | 1012 hPa | 0 mm | - | - | - |
| 1777825833 | 17.78° C | 34% | 1012.2 hPa | 0 mm | - | - | - |
| 1777824920 | 17.22° C | 37% | 1012.5 hPa | 0 mm | - | - | - |
| 1777824028 | 16.67° C | 40% | 1012.7 hPa | 0 mm | - | - | - |
| 1777823127 | 16.11° C | 42% | 1012.8 hPa | 0 mm | - | - | - |
| 1777822212 | 15° C | 48% | 1013.1 hPa | 0 mm | - | - | - |
| 1777821306 | 13.89° C | 49% | 1013.2 hPa | 0 mm | - | - | - |
| 1777820402 | 12.78° C | 52% | 1013.4 hPa | 0 mm | - | - | - |
| 1777819559 | 11.67° C | 54% | 1013.6 hPa | 0 mm | - | - | - |
| 1777818658 | 10.56° C | 55% | 1013.8 hPa | 0 mm | - | - | - |
| 1777817776 | 10° C | 57% | 1014 hPa | 0 mm | - | - | - |
| 1777816861 | 8.89° C | 58% | 1014.2 hPa | 0 mm | - | - | - |
| 1777815958 | 7.78° C | 60% | 1014.3 hPa | 0 mm | - | - | - |
| 1777815056 | 7.22° C | 59% | 1014.5 hPa | 0 mm | - | - | - |
| 1777814159 | 6.67° C | 61% | 1014.5 hPa | 0 mm | - | - | - |
| 1777813254 | 6.11° C | 63% | 1014.5 hPa | 0 mm | - | - | - |
| 1777812353 | 5.56° C | 65% | 1014.5 hPa | 0 mm | - | - | - |
| 1777811455 | 4.44° C | 69% | 1014.2 hPa | 0 mm | - | - | - |
| 1777810552 | 3.89° C | 70% | 1014.2 hPa | 0 mm | - | - | - |
| 1777809658 | 3.33° C | 71% | 1014.2 hPa | 0 mm | - | - | - |
| 1777808750 | 2.78° C | 71% | 1014.2 hPa | 0 mm | - | - | - |
| 1777807872 | 3.33° C | 70% | 1014.2 hPa | 0 mm | - | - | - |
| 1777806972 | 3.33° C | 70% | 1014.2 hPa | 0 mm | - | - | - |
| 1777806106 | 3.33° C | 69% | 1014.2 hPa | 0 mm | - | - | - |
* Rain latest hour (hover to see other rain measurements)
** Current wind speed in m/s (hover to see current wind gust speed)